createdAt,value
2023-04-17T00:04:11.487Z,102684.16
2023-04-17T00:09:15.926Z,102675.53
2023-04-17T00:14:17.953Z,102668.50
2023-04-17T00:19:19.841Z,102668.88
2023-04-17T00:24:23.873Z,102665.50
2023-04-17T00:29:27.913Z,102660.56
2023-04-17T00:34:34.621Z,102660.69
2023-04-17T00:39:36.282Z,102663.78
2023-04-17T00:44:38.200Z,102664.88
2023-04-17T00:49:42.527Z,102654.44
2023-04-17T00:54:44.358Z,102659.34
2023-04-17T00:59:46.808Z,102654.53
2023-04-17T01:04:48.456Z,102658.44
2023-04-17T01:09:52.566Z,102656.19
2023-04-17T01:14:55.834Z,102659.25
2023-04-17T01:19:59.968Z,102673.56
2023-04-17T01:25:08.322Z,102662.44
2023-04-17T01:30:14.622Z,102670.56
2023-04-17T01:35:27.897Z,102668.41
2023-04-17T01:40:29.685Z,102676.69
2023-04-17T01:45:34.177Z,102674.16
2023-04-17T01:50:35.890Z,102674.41
2023-04-17T01:55:39.771Z,102667.63
2023-04-17T02:00:49.223Z,102681.38
2023-04-17T02:05:52.755Z,102683.34
2023-04-17T02:10:59.017Z,102680.94
2023-04-17T02:16:06.248Z,102680.31
2023-04-17T02:21:09.893Z,102687.63
2023-04-17T02:26:13.864Z,102675.50
2023-04-17T02:31:24.059Z,102676.59
2023-04-17T02:36:27.288Z,102678.53
2023-04-17T02:41:33.593Z,102674.44
2023-04-17T02:46:35.895Z,102680.03
2023-04-17T02:51:40.671Z,102683.94
2023-04-17T02:56:42.442Z,102677.88
2023-04-17T03:01:45.842Z,102687.81
2023-04-17T03:06:49.411Z,102690.75
2023-04-17T03:11:53.798Z,102691.97
2023-04-17T03:16:55.725Z,102710.16
2023-04-17T03:21:57.698Z,102703.25
2023-04-17T03:27:04.855Z,102706.06
2023-04-17T03:32:15.921Z,102707.16
2023-04-17T03:37:17.989Z,102715.41
2023-04-17T03:42:19.944Z,102715.63
2023-04-17T03:47:27.042Z,102720.25
2023-04-17T03:52:31.339Z,102724.13
2023-04-17T03:57:34.122Z,102723.03
2023-04-17T04:02:39.086Z,102723.41
2023-04-17T04:07:41.117Z,102729.84
2023-04-17T04:12:48.041Z,102720.50
2023-04-17T04:17:53.113Z,102727.16
2023-04-17T04:22:57.409Z,102731.53
2023-04-17T04:28:01.642Z,102723.53
2023-04-17T04:33:06.253Z,102731.66
2023-04-17T04:38:14.138Z,102730.56
2023-04-17T04:43:22.556Z,102729.50
2023-04-17T04:48:28.945Z,102738.06
2023-04-17T04:53:30.912Z,102739.50
2023-04-17T04:58:35.072Z,102745.97
2023-04-17T05:03:41.034Z,102750.19
2023-04-17T05:08:45.241Z,102756.97
2023-04-17T05:13:49.570Z,102753.81
2023-04-17T05:18:59.355Z,102757.09
2023-04-17T05:24:29.712Z,102765.94
2023-04-17T05:29:33.940Z,102763.38
2023-04-17T05:34:36.042Z,102772.84
2023-04-17T05:39:39.144Z,102776.97
2023-04-17T05:44:42.979Z,102774.63
2023-04-17T05:49:44.780Z,102770.34
2023-04-17T05:54:46.648Z,102778.22
2023-04-17T05:59:49.304Z,102788.00
2023-04-17T06:04:54.017Z,102789.66
2023-04-17T06:10:01.532Z,102791.41
2023-04-17T06:15:09.380Z,102798.09
2023-04-17T06:20:14.728Z,102799.97
2023-04-17T06:25:19.099Z,102804.16
2023-04-17T06:30:23.141Z,102815.25
2023-04-17T06:35:28.269Z,102816.50
2023-04-17T06:40:41.889Z,102815.13
2023-04-17T06:45:43.910Z,102819.97
2023-04-17T06:50:48.109Z,102823.94
2023-04-17T06:55:52.785Z,102830.47
2023-04-17T07:00:59.278Z,102834.88
2023-04-17T07:06:03.632Z,102840.88
2023-04-17T07:11:07.737Z,102839.31
2023-04-17T07:16:12.598Z,102846.84
2023-04-17T07:21:14.397Z,102849.50
2023-04-17T07:26:16.428Z,102857.88
2023-04-17T07:31:22.187Z,102859.59
2023-04-17T07:36:24.598Z,102860.72
2023-04-17T07:41:28.671Z,102869.63
2023-04-17T07:46:30.749Z,102876.53
2023-04-17T07:51:32.915Z,102878.13
2023-04-17T07:56:37.674Z,102884.47
2023-04-17T08:01:41.950Z,102885.59
2023-04-17T08:06:43.716Z,102889.38
2023-04-17T08:11:56.120Z,102883.25
2023-04-17T08:17:02.618Z,102895.06
2023-04-17T08:22:06.202Z,102888.41
2023-04-17T08:27:12.757Z,102895.94
2023-04-17T08:32:15.400Z,102898.22
2023-04-17T08:37:17.496Z,102904.44
2023-04-17T08:42:21.370Z,102900.91
2023-04-17T08:47:23.119Z,102896.72
2023-04-17T08:52:25.009Z,102896.81
2023-04-17T08:57:28.957Z,102898.47
2023-04-17T09:02:33.165Z,102895.47
2023-04-17T09:07:34.986Z,102899.06
2023-04-17T09:12:41.907Z,102895.78
2023-04-17T09:17:48.531Z,102896.59
2023-04-17T09:22:59.547Z,102889.81
2023-04-17T09:28:14.034Z,102894.59
2023-04-17T09:33:18.055Z,102906.84
2023-04-17T09:38:40.995Z,102905.38
2023-04-17T09:43:43.416Z,102907.63
2023-04-17T09:48:46.632Z,102912.38
2023-04-17T09:53:49.842Z,102911.16
2023-04-17T09:58:54.644Z,102904.16
2023-04-17T10:03:57.020Z,102911.63
2023-04-17T10:09:01.515Z,102905.94
2023-04-17T10:14:11.823Z,102908.38
2023-04-17T10:19:33.653Z,102902.28
2023-04-17T10:24:40.072Z,102897.34
2023-04-17T10:30:00.796Z,102892.38
2023-04-17T10:35:17.983Z,102899.53
2023-04-17T10:40:22.866Z,102899.81
2023-04-17T10:45:24.772Z,102902.03
2023-04-17T10:50:32.115Z,102898.25
2023-04-17T10:55:34.286Z,102893.91
2023-04-17T11:00:38.216Z,102884.84
2023-04-17T11:05:48.046Z,102889.47
2023-04-17T11:10:53.881Z,102891.50
2023-04-17T11:15:58.668Z,102894.25
2023-04-17T11:21:04.869Z,102884.56
2023-04-17T11:26:15.578Z,102887.88
2023-04-17T11:31:18.994Z,102894.19
2023-04-17T11:36:22.119Z,102889.34
2023-04-17T11:41:36.823Z,102892.38
2023-04-17T11:46:43.104Z,102894.88
2023-04-17T11:51:49.987Z,102900.56
2023-04-17T11:57:02.255Z,102892.84
2023-04-17T12:02:08.453Z,102891.34
2023-04-17T12:07:24.286Z,102898.34
2023-04-17T12:12:25.969Z,102893.88
2023-04-17T12:17:30.656Z,102900.38
2023-04-17T12:22:33.342Z,102895.00
2023-04-17T12:27:37.599Z,102897.31
2023-04-17T12:32:39.831Z,102886.19
2023-04-17T12:37:44.274Z,102886.03
2023-04-17T12:42:49.506Z,102894.13
2023-04-17T12:47:58.697Z,102890.81
2023-04-17T12:53:02.889Z,102895.63
2023-04-17T12:58:14.203Z,102891.41
2023-04-17T13:03:16.186Z,102888.78
2023-04-17T13:08:17.949Z,102885.50
2023-04-17T13:13:22.412Z,102880.00
2023-04-17T13:18:26.861Z,102886.63
2023-04-17T13:23:29.386Z,102874.41
2023-04-17T13:28:33.810Z,102878.69
2023-04-17T13:33:40.390Z,102874.31
2023-04-17T13:38:42.072Z,102876.00
2023-04-17T13:43:48.421Z,102872.91
2023-04-17T13:48:50.084Z,102875.19
2023-04-17T13:53:54.016Z,102864.91
2023-04-17T13:58:58.595Z,102864.84
2023-04-17T14:04:00.975Z,102862.25
2023-04-17T14:09:03.404Z,102851.47
2023-04-17T14:14:05.704Z,102846.25
2023-04-17T14:19:14.546Z,102852.00
2023-04-17T14:24:19.485Z,102836.56
2023-04-17T14:29:21.402Z,102829.47
2023-04-17T14:34:25.418Z,102830.84
2023-04-17T14:39:28.392Z,102833.09
2023-04-17T14:44:34.214Z,102835.34
2023-04-17T14:49:38.119Z,102822.44
2023-04-17T14:54:39.774Z,102822.81
2023-04-17T14:59:44.433Z,102827.22
2023-04-17T15:04:47.631Z,102821.63
2023-04-17T15:09:49.335Z,102809.47
2023-04-17T15:14:53.410Z,102820.59
2023-04-17T15:19:58.637Z,102816.25
2023-04-17T15:25:02.996Z,102815.66
2023-04-17T15:30:08.925Z,102804.63
2023-04-17T15:35:13.064Z,102817.94
2023-04-17T15:40:16.400Z,102813.75
2023-04-17T15:45:20.508Z,102812.88
2023-04-17T15:50:27.355Z,102816.28
2023-04-17T15:55:33.148Z,102813.19
2023-04-17T16:00:37.184Z,102813.56
2023-04-17T16:05:38.838Z,102822.97
2023-04-17T16:10:42.632Z,102826.16
2023-04-17T16:15:45.147Z,102822.03
2023-04-17T16:20:47.178Z,102826.75
2023-04-17T16:25:56.888Z,102840.53
2023-04-17T16:30:58.795Z,102848.91
2023-04-17T16:36:03.614Z,102848.72
2023-04-17T16:41:10.822Z,102840.94
2023-04-17T16:46:23.957Z,102856.28
2023-04-17T16:51:33.365Z,102847.59
2023-04-17T16:56:38.228Z,102857.88
2023-04-17T17:01:42.711Z,102860.44
2023-04-17T17:06:46.939Z,102861.78
2023-04-17T17:11:53.394Z,102861.06
2023-04-17T17:16:58.361Z,102860.72
2023-04-17T17:22:02.694Z,102863.19
2023-04-17T17:27:04.687Z,102877.59
2023-04-17T17:32:09.080Z,102883.16
2023-04-17T17:37:10.976Z,102886.53
2023-04-17T17:42:12.689Z,102894.00
2023-04-17T17:47:16.744Z,102892.16
2023-04-17T17:52:18.418Z,102903.75
2023-04-17T17:57:22.170Z,102902.19
2023-04-17T18:02:26.027Z,102912.03
2023-04-17T18:07:27.886Z,102914.44
2023-04-17T18:12:34.240Z,102915.25
2023-04-17T18:17:41.214Z,102923.31
2023-04-17T18:22:46.235Z,102930.69
2023-04-17T18:27:48.214Z,102941.63
2023-04-17T18:32:50.051Z,102948.88
2023-04-17T18:37:53.064Z,102954.75
2023-04-17T18:42:56.391Z,102967.09
2023-04-17T18:48:00.546Z,102969.75
2023-04-17T18:53:04.568Z,102973.94
2023-04-17T18:58:06.411Z,102983.63
2023-04-17T19:03:10.876Z,102981.50
2023-04-17T19:08:13.924Z,103001.13
2023-04-17T19:13:17.903Z,103007.34
2023-04-17T19:18:19.839Z,103004.75
2023-04-17T19:23:21.674Z,103012.38
2023-04-17T19:28:24.188Z,103005.44
2023-04-17T19:33:28.555Z,103014.03
2023-04-17T19:38:31.430Z,103009.47
2023-04-17T19:43:33.176Z,103015.63
2023-04-17T19:48:41.528Z,103012.44
2023-04-17T19:53:46.596Z,103015.56
2023-04-17T19:58:48.431Z,103022.38
2023-04-17T20:03:52.552Z,103015.50
2023-04-17T20:08:59.278Z,103029.50
2023-04-17T20:14:04.566Z,103017.69
2023-04-17T20:19:06.285Z,103029.25
2023-04-17T20:24:10.687Z,103022.19
2023-04-17T20:29:15.585Z,103030.97
2023-04-17T20:34:19.731Z,103022.88
2023-04-17T20:39:21.464Z,103031.91
2023-04-17T20:44:25.849Z,103024.38
2023-04-17T20:49:31.163Z,103025.38
2023-04-17T20:54:40.001Z,103025.97
2023-04-17T20:59:44.008Z,103025.16
2023-04-17T21:04:45.771Z,103025.78
2023-04-17T21:09:49.711Z,103032.22
2023-04-17T21:14:54.095Z,103038.53
2023-04-17T21:19:56.251Z,103034.75
2023-04-17T21:25:00.176Z,103026.16
2023-04-17T21:30:04.851Z,103032.25
2023-04-17T21:35:13.573Z,103012.06
2023-04-17T21:40:17.487Z,103035.66
2023-04-17T21:45:19.844Z,103038.34
2023-04-17T21:50:23.928Z,103038.56
2023-04-17T21:55:25.667Z,103047.78
2023-04-17T22:00:29.746Z,103044.47
2023-04-17T22:05:31.403Z,103044.53
2023-04-17T22:10:37.881Z,103047.09
2023-04-17T22:15:42.553Z,103049.47
2023-04-17T22:20:46.578Z,103055.47
2023-04-17T22:25:48.261Z,103053.50
2023-04-17T22:30:51.958Z,103053.97
2023-04-17T22:35:58.241Z,103051.75
2023-04-17T22:41:00.434Z,103053.28
2023-04-17T22:46:04.781Z,103056.63
2023-04-17T22:51:09.743Z,103053.66
2023-04-17T22:56:15.849Z,103061.38
2023-04-17T23:01:19.894Z,103057.25
2023-04-17T23:06:25.995Z,103066.44
2023-04-17T23:11:30.928Z,103063.88
2023-04-17T23:16:34.734Z,103072.84
2023-04-17T23:21:41.359Z,103071.53
2023-04-17T23:26:47.558Z,103078.34
2023-04-17T23:31:51.672Z,103068.19
2023-04-17T23:36:55.895Z,103082.91
2023-04-17T23:42:05.638Z,103080.00
2023-04-17T23:47:11.417Z,103089.56
2023-04-17T23:52:15.161Z,103088.72
2023-04-17T23:57:17.458Z,103087.78
